Federal Way, Washington
Current Conditions -  °F | °C
As of 10:53 PM on Friday 19 Dec 2014 (Local Time) from KSEA Reporting Station
Overcast Overcast  
Wind Chill: 42°   Ceiling: 8000
Heat Index: 46°   Visibility: 10mi
Dew Point: 36°   Wind: 7mph
Humidity: 68%   Direction: 150°SSE
Pressure: 29.87"   Gusts: NA
Location:  47.3°N, 122.32°W
Report Text: KSEA 200653Z 15006KT 10SM SCT065 BKN080 OVC100 08/02 A2987 RMK AO2 SLP122 T00780022
Loading
Personal Weather Stations






























Interactive Weather Map New forecast layout! Learn more

10-Day Weather Forecast

Advertisements
Track Severe Weather on mobile